HXE weather

Mexipuerto Ecatepec Heliport
Ecatepec, México (state), Mexico

Public forecast

Using degrees Celsius for public forecast. Weather courtesy of forecast.io.

Closest aviation weather report (METAR) to Mexipuerto Ecatepec Heliport

Closest report is Licenciado Benito Juarez International Airport, 6.4 nm (11.9 km) SSW. Retrieved 2020/02/22 03:45 UTC (18 minutes ago):

MMMX 220345Z 27012KT 7SM FEW090 14/05 A3049 NOSIG RMK 8/030 HZY ISOL SC AND CI

Closest aviation forecast (TAF) to Mexipuerto Ecatepec Heliport

Closest forecast is Licenciado Benito Juarez International Airport, 6.4 nm (11.9 km) SSW. Retrieved 2020-02-22 00:13 UTC (4 hours ago):

TAF MMMX 212306Z 2200/2306 32005KT 6SM HZ SCT025 TX26/2222Z TN10/2213Z BECMG 2202/2203 36005KT FM220600 00000KT 6SM HZ SCT025 TEMPO 2206/2210 BKN025 FM221200 03005KT 5SM HZ SCT020 FM221800 03008KT 6SM HZ SCT025 BECMG 2220/2221 03012KT FM230200 03005KT 6SM HZ SCT080